sensor_id;sensor_type;location;lat;lon;timestamp;P1;durP1;ratioP1;P2;durP2;ratioP2
22460;SDS011;11397;48.410;11.468;2023-07-13T00:01:51;4.20;;;4.10;;
22460;SDS011;11397;48.410;11.468;2023-07-13T00:06:53;4.00;;;3.90;;
22460;SDS011;11397;48.410;11.468;2023-07-13T00:11:56;4.18;;;4.07;;
22460;SDS011;11397;48.410;11.468;2023-07-13T00:16:58;4.00;;;3.90;;
22460;SDS011;11397;48.410;11.468;2023-07-13T00:22:00;3.90;;;3.80;;
22460;SDS011;11397;48.410;11.468;2023-07-13T00:27:04;4.28;;;4.18;;
22460;SDS011;11397;48.410;11.468;2023-07-13T00:32:06;4.13;;;4.03;;
22460;SDS011;11397;48.410;11.468;2023-07-13T00:37:10;4.30;;;4.20;;
22460;SDS011;11397;48.410;11.468;2023-07-13T00:42:13;4.20;;;4.10;;
22460;SDS011;11397;48.410;11.468;2023-07-13T00:47:15;4.30;;;4.20;;
22460;SDS011;11397;48.410;11.468;2023-07-13T00:52:19;3.92;;;3.83;;
22460;SDS011;11397;48.410;11.468;2023-07-13T00:57:22;4.38;;;4.28;;
22460;SDS011;11397;48.410;11.468;2023-07-13T01:02:24;4.30;;;4.20;;
22460;SDS011;11397;48.410;11.468;2023-07-13T01:07:26;4.03;;;3.92;;
22460;SDS011;11397;48.410;11.468;2023-07-13T01:12:56;4.15;;;4.05;;
22460;SDS011;11397;48.410;11.468;2023-07-13T01:17:57;4.47;;;4.38;;
22460;SDS011;11397;48.410;11.468;2023-07-13T01:23:01;4.10;;;4.00;;
22460;SDS011;11397;48.410;11.468;2023-07-13T01:28:04;4.13;;;4.03;;
22460;SDS011;11397;48.410;11.468;2023-07-13T01:33:06;3.95;;;3.85;;
22460;SDS011;11397;48.410;11.468;2023-07-13T01:38:10;4.25;;;4.15;;
22460;SDS011;11397;48.410;11.468;2023-07-13T01:43:11;4.15;;;4.05;;
22460;SDS011;11397;48.410;11.468;2023-07-13T01:48:14;4.20;;;4.10;;
22460;SDS011;11397;48.410;11.468;2023-07-13T01:53:17;4.05;;;3.95;;
22460;SDS011;11397;48.410;11.468;2023-07-13T01:58:19;4.32;;;4.22;;
22460;SDS011;11397;48.410;11.468;2023-07-13T02:03:21;4.18;;;4.07;;
22460;SDS011;11397;48.410;11.468;2023-07-13T02:08:24;4.07;;;3.97;;
22460;SDS011;11397;48.410;11.468;2023-07-13T02:13:26;4.10;;;4.00;;
22460;SDS011;11397;48.410;11.468;2023-07-13T02:18:27;4.22;;;4.13;;
22460;SDS011;11397;48.410;11.468;2023-07-13T02:23:30;4.00;;;3.90;;
22460;SDS011;11397;48.410;11.468;2023-07-13T02:28:37;4.13;;;4.03;;
22460;SDS011;11397;48.410;11.468;2023-07-13T02:33:38;4.30;;;4.20;;
22460;SDS011;11397;48.410;11.468;2023-07-13T02:38:42;4.57;;;4.40;;
22460;SDS011;11397;48.410;11.468;2023-07-13T02:43:44;4.18;;;4.07;;
22460;SDS011;11397;48.410;11.468;2023-07-13T02:48:49;4.35;;;4.25;;
22460;SDS011;11397;48.410;11.468;2023-07-13T02:53:55;4.00;;;3.90;;
22460;SDS011;11397;48.410;11.468;2023-07-13T02:58:57;4.00;;;3.90;;
22460;SDS011;11397;48.410;11.468;2023-07-13T03:04:00;4.20;;;4.10;;
22460;SDS011;11397;48.410;11.468;2023-07-13T03:09:07;4.30;;;4.20;;
22460;SDS011;11397;48.410;11.468;2023-07-13T03:14:12;3.75;;;3.65;;
22460;SDS011;11397;48.410;11.468;2023-07-13T03:19:14;4.20;;;4.10;;
22460;SDS011;11397;48.410;11.468;2023-07-13T03:24:22;4.40;;;4.30;;
22460;SDS011;11397;48.410;11.468;2023-07-13T03:29:26;4.10;;;4.00;;
22460;SDS011;11397;48.410;11.468;2023-07-13T03:34:28;4.40;;;4.30;;
22460;SDS011;11397;48.410;11.468;2023-07-13T03:39:32;4.40;;;4.30;;
22460;SDS011;11397;48.410;11.468;2023-07-13T03:44:34;4.32;;;4.22;;
22460;SDS011;11397;48.410;11.468;2023-07-13T03:49:38;4.10;;;4.00;;
22460;SDS011;11397;48.410;11.468;2023-07-13T03:54:41;4.47;;;4.38;;
22460;SDS011;11397;48.410;11.468;2023-07-13T04:00:11;4.20;;;4.10;;
22460;SDS011;11397;48.410;11.468;2023-07-13T04:05:18;4.05;;;3.95;;
22460;SDS011;11397;48.410;11.468;2023-07-13T04:10:22;4.30;;;4.20;;
22460;SDS011;11397;48.410;11.468;2023-07-13T04:15:28;4.40;;;4.30;;
22460;SDS011;11397;48.410;11.468;2023-07-13T04:20:30;4.10;;;4.00;;
22460;SDS011;11397;48.410;11.468;2023-07-13T04:25:34;4.13;;;4.03;;
22460;SDS011;11397;48.410;11.468;2023-07-13T04:30:36;3.80;;;3.70;;
22460;SDS011;11397;48.410;11.468;2023-07-13T04:35:37;4.32;;;4.22;;
22460;SDS011;11397;48.410;11.468;2023-07-13T04:40:41;4.50;;;4.40;;
22460;SDS011;11397;48.410;11.468;2023-07-13T04:45:45;4.13;;;4.03;;
22460;SDS011;11397;48.410;11.468;2023-07-13T04:50:47;4.50;;;4.40;;
22460;SDS011;11397;48.410;11.468;2023-07-13T04:56:17;4.32;;;4.22;;
22460;SDS011;11397;48.410;11.468;2023-07-13T05:01:20;4.22;;;4.13;;
22460;SDS011;11397;48.410;11.468;2023-07-13T05:06:21;4.70;;;4.50;;
22460;SDS011;11397;48.410;11.468;2023-07-13T05:11:24;4.50;;;4.40;;
22460;SDS011;11397;48.410;11.468;2023-07-13T05:16:26;4.20;;;4.10;;
22460;SDS011;11397;48.410;11.468;2023-07-13T05:21:28;4.22;;;4.13;;
22460;SDS011;11397;48.410;11.468;2023-07-13T05:26:32;4.53;;;4.43;;
22460;SDS011;11397;48.410;11.468;2023-07-13T05:31:34;3.80;;;3.70;;
22460;SDS011;11397;48.410;11.468;2023-07-13T05:36:35;4.38;;;4.28;;
22460;SDS011;11397;48.410;11.468;2023-07-13T05:41:39;4.13;;;4.03;;
22460;SDS011;11397;48.410;11.468;2023-07-13T05:46:41;4.28;;;4.18;;
22460;SDS011;11397;48.410;11.468;2023-07-13T05:51:48;4.32;;;4.22;;
22460;SDS011;11397;48.410;11.468;2023-07-13T05:56:51;4.25;;;4.15;;
22460;SDS011;11397;48.410;11.468;2023-07-13T06:01:53;4.30;;;4.20;;
22460;SDS011;11397;48.410;11.468;2023-07-13T06:06:55;4.10;;;4.00;;
22460;SDS011;11397;48.410;11.468;2023-07-13T06:11:59;4.32;;;4.22;;
22460;SDS011;11397;48.410;11.468;2023-07-13T06:17:01;4.18;;;4.07;;
22460;SDS011;11397;48.410;11.468;2023-07-13T06:22:03;4.50;;;4.40;;
22460;SDS011;11397;48.410;11.468;2023-07-13T06:27:06;4.05;;;3.95;;
22460;SDS011;11397;48.410;11.468;2023-07-13T06:32:09;4.15;;;4.05;;
22460;SDS011;11397;48.410;11.468;2023-07-13T06:37:11;4.20;;;4.10;;
22460;SDS011;11397;48.410;11.468;2023-07-13T06:42:15;4.40;;;4.30;;
22460;SDS011;11397;48.410;11.468;2023-07-13T06:47:17;4.30;;;4.20;;
22460;SDS011;11397;48.410;11.468;2023-07-13T06:52:19;3.97;;;3.88;;
22460;SDS011;11397;48.410;11.468;2023-07-13T06:57:22;4.00;;;3.90;;
22460;SDS011;11397;48.410;11.468;2023-07-13T07:02:24;4.20;;;4.10;;
22460;SDS011;11397;48.410;11.468;2023-07-13T07:07:26;4.28;;;4.18;;
22460;SDS011;11397;48.410;11.468;2023-07-13T07:12:29;3.90;;;3.80;;
22460;SDS011;11397;48.410;11.468;2023-07-13T07:17:30;4.20;;;4.10;;
22460;SDS011;11397;48.410;11.468;2023-07-13T07:22:32;3.85;;;3.75;;
22460;SDS011;11397;48.410;11.468;2023-07-13T07:27:36;4.18;;;4.07;;
22460;SDS011;11397;48.410;11.468;2023-07-13T07:32:37;4.30;;;4.20;;
22460;SDS011;11397;48.410;11.468;2023-07-13T07:37:39;3.90;;;3.80;;
22460;SDS011;11397;48.410;11.468;2023-07-13T07:42:42;4.03;;;3.92;;
22460;SDS011;11397;48.410;11.468;2023-07-13T07:47:44;4.15;;;4.05;;
22460;SDS011;11397;48.410;11.468;2023-07-13T07:52:48;4.03;;;3.92;;
22460;SDS011;11397;48.410;11.468;2023-07-13T07:57:51;4.30;;;4.20;;
22460;SDS011;11397;48.410;11.468;2023-07-13T08:02:53;4.20;;;4.10;;
22460;SDS011;11397;48.410;11.468;2023-07-13T08:07:54;4.35;;;4.25;;
22460;SDS011;11397;48.410;11.468;2023-07-13T08:12:57;4.78;;;4.38;;
22460;SDS011;11397;48.410;11.468;2023-07-13T08:17:59;4.40;;;4.30;;
22460;SDS011;11397;48.410;11.468;2023-07-13T08:23:03;4.20;;;4.10;;
22460;SDS011;11397;48.410;11.468;2023-07-13T08:28:06;4.30;;;4.20;;
22460;SDS011;11397;48.410;11.468;2023-07-13T08:33:08;4.30;;;4.20;;
22460;SDS011;11397;48.410;11.468;2023-07-13T08:38:09;4.15;;;4.05;;
22460;SDS011;11397;48.410;11.468;2023-07-13T08:43:13;4.30;;;4.20;;
22460;SDS011;11397;48.410;11.468;2023-07-13T08:48:18;3.95;;;3.85;;
22460;SDS011;11397;48.410;11.468;2023-07-13T08:53:24;4.10;;;4.00;;
22460;SDS011;11397;48.410;11.468;2023-07-13T08:58:31;4.30;;;4.20;;
22460;SDS011;11397;48.410;11.468;2023-07-13T09:03:36;3.88;;;3.78;;
22460;SDS011;11397;48.410;11.468;2023-07-13T09:08:43;4.30;;;4.20;;
22460;SDS011;11397;48.410;11.468;2023-07-13T09:13:50;4.00;;;3.90;;
22460;SDS011;11397;48.410;11.468;2023-07-13T09:18:56;3.80;;;3.70;;
22460;SDS011;11397;48.410;11.468;2023-07-13T09:24:01;3.65;;;3.55;;
22460;SDS011;11397;48.410;11.468;2023-07-13T09:29:11;3.83;;;3.72;;
22460;SDS011;11397;48.410;11.468;2023-07-13T09:34:14;3.95;;;3.85;;
22460;SDS011;11397;48.410;11.468;2023-07-13T09:39:19;3.95;;;3.85;;
22460;SDS011;11397;48.410;11.468;2023-07-13T09:44:29;3.90;;;3.80;;
22460;SDS011;11397;48.410;11.468;2023-07-13T09:49:33;4.10;;;4.00;;
22460;SDS011;11397;48.410;11.468;2023-07-13T10:06:27;3.97;;;3.88;;
22460;SDS011;11397;48.410;11.468;2023-07-13T10:11:30;4.30;;;4.20;;
22460;SDS011;11397;48.410;11.468;2023-07-13T10:16:34;4.20;;;4.10;;
22460;SDS011;11397;48.410;11.468;2023-07-13T10:21:38;4.10;;;4.00;;
22460;SDS011;11397;48.410;11.468;2023-07-13T10:26:43;4.20;;;4.10;;
22460;SDS011;11397;48.410;11.468;2023-07-13T10:31:47;4.30;;;4.20;;
22460;SDS011;11397;48.410;11.468;2023-07-13T10:36:51;4.00;;;3.90;;
22460;SDS011;11397;48.410;11.468;2023-07-13T10:41:54;4.10;;;4.00;;
22460;SDS011;11397;48.410;11.468;2023-07-13T10:46:57;4.20;;;4.10;;
22460;SDS011;11397;48.410;11.468;2023-07-13T10:52:02;4.00;;;3.90;;
22460;SDS011;11397;48.410;11.468;2023-07-13T10:57:14;4.10;;;4.00;;
22460;SDS011;11397;48.410;11.468;2023-07-13T11:02:22;3.75;;;3.65;;
22460;SDS011;11397;48.410;11.468;2023-07-13T11:07:30;4.22;;;4.13;;
22460;SDS011;11397;48.410;11.468;2023-07-13T11:12:51;3.88;;;3.78;;
22460;SDS011;11397;48.410;11.468;2023-07-13T11:17:54;4.03;;;3.92;;
22460;SDS011;11397;48.410;11.468;2023-07-13T11:23:08;3.90;;;3.80;;
22460;SDS011;11397;48.410;11.468;2023-07-13T11:28:14;4.00;;;3.90;;
22460;SDS011;11397;48.410;11.468;2023-07-13T11:33:18;3.95;;;3.85;;
22460;SDS011;11397;48.410;11.468;2023-07-13T11:38:22;4.10;;;4.00;;
22460;SDS011;11397;48.410;11.468;2023-07-13T11:43:24;4.00;;;3.90;;
22460;SDS011;11397;48.410;11.468;2023-07-13T11:48:28;4.10;;;4.00;;
22460;SDS011;11397;48.410;11.468;2023-07-13T11:53:37;4.00;;;3.90;;
22460;SDS011;11397;48.410;11.468;2023-07-13T11:58:42;3.63;;;3.53;;
22460;SDS011;11397;48.410;11.468;2023-07-13T12:03:45;3.85;;;3.75;;
22460;SDS011;11397;48.410;11.468;2023-07-13T12:08:48;3.67;;;3.58;;
22460;SDS011;11397;48.410;11.468;2023-07-13T12:13:50;3.75;;;3.65;;
22460;SDS011;11397;48.410;11.468;2023-07-13T12:18:52;3.90;;;3.80;;
22460;SDS011;11397;48.410;11.468;2023-07-13T12:23:55;3.67;;;3.58;;
22460;SDS011;11397;48.410;11.468;2023-07-13T12:28:58;3.80;;;3.70;;
22460;SDS011;11397;48.410;11.468;2023-07-13T12:34:02;3.70;;;3.60;;
22460;SDS011;11397;48.410;11.468;2023-07-13T12:39:11;3.63;;;3.53;;
22460;SDS011;11397;48.410;11.468;2023-07-13T12:44:14;3.55;;;3.45;;
22460;SDS011;11397;48.410;11.468;2023-07-13T12:49:16;3.75;;;3.65;;
22460;SDS011;11397;48.410;11.468;2023-07-13T12:54:20;3.60;;;3.50;;
22460;SDS011;11397;48.410;11.468;2023-07-13T12:59:29;3.90;;;3.80;;
22460;SDS011;11397;48.410;11.468;2023-07-13T13:04:33;3.78;;;3.67;;
22460;SDS011;11397;48.410;11.468;2023-07-13T13:09:41;3.83;;;3.72;;
22460;SDS011;11397;48.410;11.468;2023-07-13T13:14:43;3.72;;;3.63;;
22460;SDS011;11397;48.410;11.468;2023-07-13T13:19:45;3.63;;;3.53;;
22460;SDS011;11397;48.410;11.468;2023-07-13T13:24:49;3.58;;;3.47;;
22460;SDS011;11397;48.410;11.468;2023-07-13T13:29:51;3.60;;;3.50;;
22460;SDS011;11397;48.410;11.468;2023-07-13T13:34:53;3.67;;;3.58;;
22460;SDS011;11397;48.410;11.468;2023-07-13T13:39:57;3.80;;;3.70;;
22460;SDS011;11397;48.410;11.468;2023-07-13T13:44:58;3.45;;;3.35;;
22460;SDS011;11397;48.410;11.468;2023-07-13T13:55:28;3.40;;;3.30;;
22460;SDS011;11397;48.410;11.468;2023-07-13T14:00:30;3.60;;;3.50;;
22460;SDS011;11397;48.410;11.468;2023-07-13T14:05:32;3.65;;;3.55;;
22460;SDS011;11397;48.410;11.468;2023-07-13T14:10:35;3.90;;;3.80;;
22460;SDS011;11397;48.410;11.468;2023-07-13T14:15:37;3.67;;;3.58;;
22460;SDS011;11397;48.410;11.468;2023-07-13T14:20:39;3.70;;;3.60;;
22460;SDS011;11397;48.410;11.468;2023-07-13T14:25:42;3.80;;;3.70;;
22460;SDS011;11397;48.410;11.468;2023-07-13T14:30:44;3.65;;;3.55;;
22460;SDS011;11397;48.410;11.468;2023-07-13T14:35:49;3.72;;;3.63;;
22460;SDS011;11397;48.410;11.468;2023-07-13T14:40:52;3.65;;;3.55;;
22460;SDS011;11397;48.410;11.468;2023-07-13T14:45:54;3.80;;;3.70;;
22460;SDS011;11397;48.410;11.468;2023-07-13T14:50:57;3.58;;;3.47;;
22460;SDS011;11397;48.410;11.468;2023-07-13T14:56:10;3.60;;;3.50;;
22460;SDS011;11397;48.410;11.468;2023-07-13T15:01:12;3.63;;;3.53;;
22460;SDS011;11397;48.410;11.468;2023-07-13T15:06:15;3.38;;;3.28;;
22460;SDS011;11397;48.410;11.468;2023-07-13T15:11:19;3.70;;;3.60;;
22460;SDS011;11397;48.410;11.468;2023-07-13T15:16:22;3.35;;;3.25;;
22460;SDS011;11397;48.410;11.468;2023-07-13T15:21:24;3.60;;;3.50;;
22460;SDS011;11397;48.410;11.468;2023-07-13T15:26:29;3.50;;;3.40;;
22460;SDS011;11397;48.410;11.468;2023-07-13T15:31:31;3.50;;;3.40;;
22460;SDS011;11397;48.410;11.468;2023-07-13T15:36:40;3.67;;;3.58;;
22460;SDS011;11397;48.410;11.468;2023-07-13T15:41:43;3.53;;;3.42;;
22460;SDS011;11397;48.410;11.468;2023-07-13T15:46:46;3.53;;;3.42;;
22460;SDS011;11397;48.410;11.468;2023-07-13T15:51:47;3.60;;;3.50;;
22460;SDS011;11397;48.410;11.468;2023-07-13T16:02:18;3.70;;;3.60;;
22460;SDS011;11397;48.410;11.468;2023-07-13T16:07:20;3.40;;;3.30;;
22460;SDS011;11397;48.410;11.468;2023-07-13T16:12:23;3.50;;;3.40;;
22460;SDS011;11397;48.410;11.468;2023-07-13T16:17:26;3.50;;;3.40;;
22460;SDS011;11397;48.410;11.468;2023-07-13T16:22:29;3.60;;;3.50;;
22460;SDS011;11397;48.410;11.468;2023-07-13T16:27:30;3.60;;;3.50;;
22460;SDS011;11397;48.410;11.468;2023-07-13T16:32:35;3.80;;;3.70;;
22460;SDS011;11397;48.410;11.468;2023-07-13T16:37:37;3.70;;;3.60;;
22460;SDS011;11397;48.410;11.468;2023-07-13T16:42:43;3.47;;;3.38;;
22460;SDS011;11397;48.410;11.468;2023-07-13T16:47:47;3.47;;;3.38;;
22460;SDS011;11397;48.410;11.468;2023-07-13T16:52:52;3.50;;;3.40;;
22460;SDS011;11397;48.410;11.468;2023-07-13T16:57:55;3.55;;;3.45;;
22460;SDS011;11397;48.410;11.468;2023-07-13T17:03:01;3.30;;;3.20;;
22460;SDS011;11397;48.410;11.468;2023-07-13T17:08:09;3.55;;;3.45;;
22460;SDS011;11397;48.410;11.468;2023-07-13T17:13:15;3.40;;;3.30;;
22460;SDS011;11397;48.410;11.468;2023-07-13T17:18:19;3.58;;;3.47;;
22460;SDS011;11397;48.410;11.468;2023-07-13T17:23:21;3.40;;;3.30;;
22460;SDS011;11397;48.410;11.468;2023-07-13T17:28:24;3.58;;;3.47;;
22460;SDS011;11397;48.410;11.468;2023-07-13T17:33:28;3.50;;;3.40;;
22460;SDS011;11397;48.410;11.468;2023-07-13T17:38:31;3.55;;;3.45;;
22460;SDS011;11397;48.410;11.468;2023-07-13T17:43:36;3.80;;;3.70;;
22460;SDS011;11397;48.410;11.468;2023-07-13T17:49:08;3.53;;;3.42;;
22460;SDS011;11397;48.410;11.468;2023-07-13T17:54:20;3.80;;;3.70;;
22460;SDS011;11397;48.410;11.468;2023-07-13T17:59:22;3.60;;;3.50;;
22460;SDS011;11397;48.410;11.468;2023-07-13T18:04:26;3.28;;;3.17;;
22460;SDS011;11397;48.410;11.468;2023-07-13T18:09:28;3.55;;;3.45;;
22460;SDS011;11397;48.410;11.468;2023-07-13T18:14:54;3.63;;;3.53;;
22460;SDS011;11397;48.410;11.468;2023-07-13T18:19:57;3.50;;;3.40;;
22460;SDS011;11397;48.410;11.468;2023-07-13T18:24:59;3.60;;;3.50;;
22460;SDS011;11397;48.410;11.468;2023-07-13T18:30:27;3.40;;;3.30;;
22460;SDS011;11397;48.410;11.468;2023-07-13T18:35:31;3.70;;;3.60;;
22460;SDS011;11397;48.410;11.468;2023-07-13T18:40:33;3.63;;;3.53;;
22460;SDS011;11397;48.410;11.468;2023-07-13T18:45:59;3.40;;;3.30;;
22460;SDS011;11397;48.410;11.468;2023-07-13T18:51:03;3.47;;;3.38;;
22460;SDS011;11397;48.410;11.468;2023-07-13T18:56:05;3.35;;;3.25;;
22460;SDS011;11397;48.410;11.468;2023-07-13T19:01:12;3.50;;;3.40;;
22460;SDS011;11397;48.410;11.468;2023-07-13T19:06:18;3.70;;;3.60;;
22460;SDS011;11397;48.410;11.468;2023-07-13T19:11:21;3.60;;;3.50;;
22460;SDS011;11397;48.410;11.468;2023-07-13T19:16:24;3.40;;;3.30;;
22460;SDS011;11397;48.410;11.468;2023-07-13T19:21:31;3.42;;;3.33;;
22460;SDS011;11397;48.410;11.468;2023-07-13T19:26:34;3.50;;;3.40;;
22460;SDS011;11397;48.410;11.468;2023-07-13T19:31:38;3.50;;;3.40;;
22460;SDS011;11397;48.410;11.468;2023-07-13T19:36:42;3.42;;;3.33;;
22460;SDS011;11397;48.410;11.468;2023-07-13T19:41:44;3.55;;;3.45;;
22460;SDS011;11397;48.410;11.468;2023-07-13T19:46:45;3.33;;;3.22;;
22460;SDS011;11397;48.410;11.468;2023-07-13T19:57:21;3.38;;;3.28;;
22460;SDS011;11397;48.410;11.468;2023-07-13T20:02:23;3.70;;;3.60;;
22460;SDS011;11397;48.410;11.468;2023-07-13T20:07:26;3.50;;;3.40;;
22460;SDS011;11397;48.410;11.468;2023-07-13T20:12:29;3.80;;;3.70;;
22460;SDS011;11397;48.410;11.468;2023-07-13T20:17:32;3.67;;;3.58;;
22460;SDS011;11397;48.410;11.468;2023-07-13T20:22:34;3.70;;;3.60;;
22460;SDS011;11397;48.410;11.468;2023-07-13T20:27:37;3.55;;;3.45;;
22460;SDS011;11397;48.410;11.468;2023-07-13T20:32:39;3.60;;;3.50;;
22460;SDS011;11397;48.410;11.468;2023-07-13T20:37:41;3.65;;;3.55;;
22460;SDS011;11397;48.410;11.468;2023-07-13T20:42:44;3.63;;;3.53;;
22460;SDS011;11397;48.410;11.468;2023-07-13T20:47:46;3.70;;;3.60;;
22460;SDS011;11397;48.410;11.468;2023-07-13T20:52:51;3.55;;;3.45;;
22460;SDS011;11397;48.410;11.468;2023-07-13T20:57:55;3.38;;;3.28;;
22460;SDS011;11397;48.410;11.468;2023-07-13T21:02:58;3.80;;;3.70;;
22460;SDS011;11397;48.410;11.468;2023-07-13T21:08:00;3.65;;;3.55;;
22460;SDS011;11397;48.410;11.468;2023-07-13T21:13:03;3.75;;;3.65;;
22460;SDS011;11397;48.410;11.468;2023-07-13T21:18:29;3.28;;;3.17;;
22460;SDS011;11397;48.410;11.468;2023-07-13T21:23:31;3.67;;;3.58;;
22460;SDS011;11397;48.410;11.468;2023-07-13T21:28:35;3.88;;;3.78;;
22460;SDS011;11397;48.410;11.468;2023-07-13T21:33:37;3.97;;;3.88;;
22460;SDS011;11397;48.410;11.468;2023-07-13T21:38:40;3.72;;;3.63;;
22460;SDS011;11397;48.410;11.468;2023-07-13T21:43:43;3.55;;;3.45;;
22460;SDS011;11397;48.410;11.468;2023-07-13T21:48:45;3.80;;;3.70;;
22460;SDS011;11397;48.410;11.468;2023-07-13T21:53:48;3.60;;;3.50;;
22460;SDS011;11397;48.410;11.468;2023-07-13T21:58:52;3.80;;;3.70;;
22460;SDS011;11397;48.410;11.468;2023-07-13T22:03:54;3.50;;;3.40;;
22460;SDS011;11397;48.410;11.468;2023-07-13T22:08:56;4.00;;;3.90;;
22460;SDS011;11397;48.410;11.468;2023-07-13T22:14:25;3.80;;;3.70;;
22460;SDS011;11397;48.410;11.468;2023-07-13T22:19:28;3.85;;;3.75;;
22460;SDS011;11397;48.410;11.468;2023-07-13T22:24:31;3.95;;;3.85;;
22460;SDS011;11397;48.410;11.468;2023-07-13T22:29:34;3.55;;;3.45;;
22460;SDS011;11397;48.410;11.468;2023-07-13T22:34:36;4.00;;;3.90;;
22460;SDS011;11397;48.410;11.468;2023-07-13T22:39:38;3.97;;;3.88;;
22460;SDS011;11397;48.410;11.468;2023-07-13T22:44:41;3.70;;;3.60;;
22460;SDS011;11397;48.410;11.468;2023-07-13T22:49:44;3.90;;;3.70;;
22460;SDS011;11397;48.410;11.468;2023-07-13T22:54:45;3.95;;;3.85;;
22460;SDS011;11397;48.410;11.468;2023-07-13T22:59:50;3.97;;;3.88;;
22460;SDS011;11397;48.410;11.468;2023-07-13T23:04:51;3.75;;;3.65;;
22460;SDS011;11397;48.410;11.468;2023-07-13T23:09:54;4.05;;;3.88;;
22460;SDS011;11397;48.410;11.468;2023-07-13T23:14:57;3.90;;;3.80;;
22460;SDS011;11397;48.410;11.468;2023-07-13T23:19:58;3.80;;;3.70;;
22460;SDS011;11397;48.410;11.468;2023-07-13T23:25:00;4.00;;;3.90;;
22460;SDS011;11397;48.410;11.468;2023-07-13T23:30:04;3.80;;;3.70;;
22460;SDS011;11397;48.410;11.468;2023-07-13T23:35:08;4.20;;;4.10;;
22460;SDS011;11397;48.410;11.468;2023-07-13T23:40:14;3.97;;;3.88;;
22460;SDS011;11397;48.410;11.468;2023-07-13T23:45:18;4.00;;;3.90;;
22460;SDS011;11397;48.410;11.468;2023-07-13T23:50:23;4.03;;;3.92;;
22460;SDS011;11397;48.410;11.468;2023-07-13T23:55:26;4.00;;;3.90;;
